createdAt,value
2023-01-15T00:02:57.133Z,2.47
2023-01-15T00:08:02.523Z,3.28
2023-01-15T00:13:06.111Z,2.17
2023-01-15T00:18:09.734Z,2.45
2023-01-15T00:23:34.929Z,2.10
2023-01-15T00:28:38.473Z,2.53
2023-01-15T00:33:42.059Z,2.42
2023-01-15T00:38:47.375Z,2.60
2023-01-15T00:43:51.004Z,2.38
2023-01-15T00:48:54.733Z,3.35
2023-01-15T00:54:00.460Z,2.33
2023-01-15T00:59:05.245Z,2.67
2023-01-15T01:04:09.385Z,3.08
2023-01-15T01:09:15.956Z,2.85
2023-01-15T01:14:20.407Z,2.30
2023-01-15T01:19:25.730Z,2.55
2023-01-15T01:24:30.677Z,2.17
2023-01-15T01:29:34.273Z,2.15
2023-01-15T01:34:37.855Z,2.55
2023-01-15T01:39:43.619Z,3.05
2023-01-15T01:45:03.440Z,3.22
2023-01-15T01:50:11.590Z,3.25
2023-01-15T01:55:19.409Z,3.00
2023-01-15T02:00:25.365Z,2.80
2023-01-15T02:05:32.068Z,2.45
2023-01-15T02:10:37.042Z,3.08
2023-01-15T02:15:46.872Z,2.53
2023-01-15T02:20:53.663Z,2.30
2023-01-15T02:26:08.774Z,3.00
2023-01-15T02:31:19.362Z,2.50
2023-01-15T02:36:28.131Z,2.75
2023-01-15T02:41:37.056Z,2.13
2023-01-15T02:46:45.122Z,2.83
2023-01-15T02:51:55.255Z,2.80
2023-01-15T02:57:03.607Z,2.50
2023-01-15T03:09:03.664Z,2.50
2023-01-15T03:14:15.849Z,3.45
2023-01-15T03:19:25.627Z,3.30
2023-01-15T03:24:39.892Z,2.13
2023-01-15T03:29:49.204Z,2.55
2023-01-15T03:34:55.530Z,2.70
2023-01-15T03:40:01.634Z,2.42
2023-01-15T03:45:16.177Z,1.98
2023-01-15T03:50:28.748Z,2.38
2023-01-15T03:55:40.259Z,2.33
2023-01-15T04:00:50.403Z,2.00
2023-01-15T04:05:57.634Z,2.70
2023-01-15T04:16:45.315Z,2.35
2023-01-15T04:21:50.161Z,2.03
2023-01-15T04:26:53.767Z,1.83
2023-01-15T04:31:58.658Z,1.80
2023-01-15T04:37:02.266Z,1.63
2023-01-15T04:42:23.126Z,2.13
2023-01-15T04:47:30.934Z,1.92
2023-01-15T04:52:34.545Z,2.15
2023-01-15T04:57:39.482Z,1.83
2023-01-15T05:02:44.497Z,2.50
2023-01-15T05:07:48.146Z,1.90
2023-01-15T05:12:51.719Z,2.03
2023-01-15T05:17:57.909Z,1.80
2023-01-15T05:23:01.442Z,2.25
2023-01-15T05:28:05.177Z,1.75
2023-01-15T05:33:10.057Z,1.88
2023-01-15T05:38:13.611Z,2.20
2023-01-15T05:43:17.168Z,2.38
2023-01-15T05:48:22.087Z,2.45
2023-01-15T05:53:25.635Z,2.72
2023-01-15T05:58:29.226Z,2.90
2023-01-15T06:03:34.165Z,2.53
2023-01-15T06:08:37.796Z,2.80
2023-01-15T06:13:41.967Z,2.42
2023-01-15T06:18:47.375Z,2.80
2023-01-15T06:23:50.913Z,3.90
2023-01-15T06:28:54.773Z,2.15
2023-01-15T06:33:59.750Z,2.35
2023-01-15T06:39:05.328Z,2.50
2023-01-15T06:44:30.455Z,2.70
2023-01-15T06:49:37.379Z,3.13
2023-01-15T06:54:41.020Z,2.83
2023-01-15T06:59:44.765Z,2.45
2023-01-15T07:04:50.019Z,2.95
2023-01-15T07:09:54.046Z,2.80
2023-01-15T07:14:57.736Z,2.45
2023-01-15T07:20:02.733Z,2.28
2023-01-15T07:25:07.583Z,2.55
2023-01-15T07:30:12.619Z,2.55
2023-01-15T07:35:17.808Z,2.83
2023-01-15T07:40:21.474Z,3.13
2023-01-15T07:45:42.517Z,2.90
2023-01-15T07:50:47.532Z,2.67
2023-01-15T07:55:51.310Z,2.28
2023-01-15T08:00:55.061Z,3.13
2023-01-15T08:06:00.092Z,3.80
2023-01-15T08:11:17.889Z,3.55
2023-01-15T08:16:21.578Z,4.18
2023-01-15T08:21:26.601Z,4.57
2023-01-15T08:26:30.256Z,5.53
2023-01-15T08:31:33.834Z,5.72
2023-01-15T08:36:39.047Z,6.95
2023-01-15T08:41:42.753Z,5.50
2023-01-15T08:46:46.315Z,6.05
2023-01-15T08:51:52.172Z,4.47
2023-01-15T08:56:55.873Z,4.30
2023-01-15T09:01:59.753Z,4.60
2023-01-15T09:07:04.862Z,4.72
2023-01-15T09:12:09.035Z,4.75
2023-01-15T09:17:12.611Z,4.32
2023-01-15T09:22:17.571Z,4.47
2023-01-15T09:27:21.145Z,3.25
2023-01-15T09:32:24.856Z,4.35
2023-01-15T09:37:29.877Z,5.85
2023-01-15T09:42:44.710Z,6.90
2023-01-15T09:48:13.144Z,8.38
2023-01-15T09:53:38.004Z,10.38
2023-01-15T09:58:42.020Z,9.32
2023-01-15T10:03:52.249Z,6.20
2023-01-15T10:09:05.833Z,8.15
2023-01-15T10:14:16.945Z,7.45
2023-01-15T10:19:20.983Z,5.85
2023-01-15T10:24:33.864Z,5.95
2023-01-15T10:29:45.971Z,6.47
2023-01-15T10:35:12.230Z,7.38
2023-01-15T10:40:59.553Z,3.47
2023-01-15T10:46:12.547Z,5.57
2023-01-15T10:51:20.513Z,3.92
2023-01-15T10:56:34.732Z,4.95
2023-01-15T11:01:40.682Z,4.28
2023-01-15T11:06:45.191Z,6.03
2023-01-15T11:12:15.796Z,3.92
2023-01-15T11:17:38.054Z,3.15
2023-01-15T11:22:43.652Z,5.63
2023-01-15T11:27:53.438Z,4.88
2023-01-15T11:32:58.806Z,4.47
2023-01-15T11:38:07.344Z,4.00
2023-01-15T11:43:40.468Z,4.13
2023-01-15T11:49:05.902Z,4.50
2023-01-15T11:54:12.758Z,4.45
2023-01-15T11:59:20.978Z,4.60
2023-01-15T12:04:31.138Z,3.75
2023-01-15T12:09:48.964Z,4.10
2023-01-15T12:15:13.809Z,4.70
2023-01-15T12:20:25.601Z,4.30
2023-01-15T12:25:39.945Z,5.50
2023-01-15T12:30:56.709Z,5.28
2023-01-15T12:36:08.236Z,5.47
2023-01-15T12:41:14.877Z,5.57
2023-01-15T12:46:25.492Z,4.80
2023-01-15T12:51:35.761Z,5.28
2023-01-15T12:56:51.919Z,5.55
2023-01-15T13:02:10.518Z,5.47
2023-01-15T13:07:20.580Z,5.70
2023-01-15T13:12:24.265Z,7.78
2023-01-15T13:17:38.248Z,5.93
2023-01-15T13:22:51.889Z,10.57
2023-01-15T13:28:26.186Z,9.20
2023-01-15T13:33:37.003Z,7.00
2023-01-15T13:38:44.485Z,6.13
2023-01-15T13:43:48.077Z,7.85
2023-01-15T13:48:54.683Z,7.18
2023-01-15T13:54:00.529Z,7.10
2023-01-15T13:59:06.484Z,8.80
2023-01-15T14:04:16.165Z,6.57
2023-01-15T14:09:31.925Z,4.65
2023-01-15T14:15:04.232Z,5.47
2023-01-15T14:20:52.359Z,4.35
2023-01-15T14:26:07.559Z,5.20
2023-01-15T14:31:38.921Z,7.35
2023-01-15T14:36:52.348Z,10.75
2023-01-15T14:42:22.818Z,12.38
2023-01-15T14:47:31.311Z,4.88
2023-01-15T14:52:36.603Z,7.50
2023-01-15T14:57:42.772Z,8.50
2023-01-15T15:02:49.884Z,6.63
2023-01-15T15:07:55.454Z,5.38
2023-01-15T15:13:04.745Z,7.22
2023-01-15T15:23:25.879Z,11.93
2023-01-15T15:28:30.361Z,8.70
2023-01-15T15:33:40.180Z,10.15
2023-01-15T15:38:53.840Z,7.32
2023-01-15T15:44:17.567Z,12.32
2023-01-15T15:49:21.475Z,14.27
2023-01-15T15:54:34.312Z,16.95
2023-01-15T15:59:39.451Z,13.40
2023-01-15T16:04:48.882Z,15.23
2023-01-15T16:10:08.844Z,18.75
2023-01-15T16:15:24.108Z,30.27
2023-01-15T16:20:29.053Z,38.33
2023-01-15T16:31:03.394Z,39.80
2023-01-15T16:36:10.734Z,34.65
2023-01-15T16:41:21.448Z,33.58
2023-01-15T16:46:27.511Z,39.72
2023-01-15T16:51:33.870Z,29.50
2023-01-15T16:56:54.590Z,25.00
2023-01-15T17:02:05.919Z,24.25
2023-01-15T17:07:17.834Z,19.05
2023-01-15T17:12:29.315Z,12.43
2023-01-15T17:17:32.937Z,15.82
2023-01-15T17:22:38.532Z,12.25
2023-01-15T17:27:43.436Z,15.50
2023-01-15T17:32:47.644Z,19.40
2023-01-15T17:37:51.622Z,10.15
2023-01-15T17:42:56.717Z,12.90
2023-01-15T17:48:01.695Z,16.85
2023-01-15T17:53:06.541Z,14.10
2023-01-15T17:58:30.760Z,15.20
2023-01-15T18:03:53.208Z,17.02
2023-01-15T18:08:59.813Z,17.08
2023-01-15T18:14:04.913Z,16.10
2023-01-15T18:19:08.548Z,17.73
2023-01-15T18:24:13.657Z,19.77
2023-01-15T18:29:19.744Z,15.70
2023-01-15T18:34:23.587Z,16.40
2023-01-15T18:39:27.222Z,15.75
2023-01-15T18:44:49.644Z,19.80
2023-01-15T18:49:55.166Z,13.85
2023-01-15T18:54:58.860Z,15.25
2023-01-15T19:00:03.852Z,14.05
2023-01-15T19:05:08.059Z,13.93
2023-01-15T19:10:14.428Z,19.42
2023-01-15T19:15:38.506Z,19.20
2023-01-15T19:20:42.080Z,9.98
2023-01-15T19:25:48.870Z,9.90
2023-01-15T19:31:07.765Z,15.05
2023-01-15T19:41:36.477Z,12.02
2023-01-15T19:46:59.417Z,14.18
2023-01-15T19:52:20.611Z,17.15
2023-01-15T19:57:24.839Z,18.88
2023-01-15T20:02:30.502Z,16.50
2023-01-15T20:07:34.423Z,13.30
2023-01-15T20:12:55.437Z,14.55
2023-01-15T20:18:00.889Z,15.52
2023-01-15T20:23:04.745Z,14.68
2023-01-15T20:28:08.674Z,14.77
2023-01-15T20:33:13.936Z,17.55
2023-01-15T20:38:19.061Z,15.70
2023-01-15T20:43:39.883Z,19.50
2023-01-15T20:49:13.994Z,18.30
2023-01-15T20:54:17.638Z,14.10
2023-01-15T20:59:21.338Z,15.00
2023-01-15T21:04:26.411Z,14.27
2023-01-15T21:09:30.153Z,17.33
2023-01-15T21:14:33.744Z,16.55
2023-01-15T21:19:38.696Z,16.77
2023-01-15T21:24:42.281Z,16.17
2023-01-15T21:29:48.254Z,21.25
2023-01-15T21:34:53.205Z,17.15
2023-01-15T21:39:56.829Z,14.63
2023-01-15T21:45:00.423Z,15.15
2023-01-15T21:50:06.307Z,12.10
2023-01-15T21:55:10.881Z,16.80
2023-01-15T22:00:16.744Z,17.33
2023-01-15T22:05:24.095Z,11.88
2023-01-15T22:10:30.364Z,12.27
2023-01-15T22:15:34.011Z,16.13
2023-01-15T22:20:41.760Z,12.85
2023-01-15T22:25:46.318Z,14.50
2023-01-15T22:30:50.072Z,16.98
2023-01-15T22:36:01.251Z,15.32
2023-01-15T22:41:04.939Z,112.50
2023-01-15T22:46:12.651Z,39.67
2023-01-15T22:51:17.681Z,32.10
2023-01-15T22:56:21.415Z,22.35
2023-01-15T23:01:25.523Z,16.90
2023-01-15T23:06:30.522Z,17.42
2023-01-15T23:11:34.091Z,16.77
2023-01-15T23:16:37.717Z,18.95
2023-01-15T23:21:42.834Z,21.88
2023-01-15T23:26:46.487Z,27.38
2023-01-15T23:31:50.097Z,32.72
2023-01-15T23:36:54.977Z,37.50
2023-01-15T23:42:15.965Z,31.02
2023-01-15T23:47:19.497Z,34.47
2023-01-15T23:52:24.946Z,37.30
2023-01-15T23:57:28.494Z,34.53
